createdAt,value
2019-02-08T07:15:15.815Z,5.62
2019-02-08T07:16:15.752Z,5.62
2019-02-08T07:17:15.756Z,5.62
2019-02-08T07:18:15.932Z,5.62
2019-02-08T07:19:15.720Z,5.62
2019-02-08T07:20:16.156Z,5.62
2019-02-08T07:21:15.693Z,5.62
2019-02-08T07:22:15.697Z,5.62
2019-02-08T07:23:15.683Z,5.62
2019-02-08T07:24:15.671Z,5.62
2019-02-08T07:25:18.700Z,5.62
2019-02-08T07:26:15.652Z,5.62
2019-02-08T07:27:15.639Z,5.62
2019-02-08T07:28:15.826Z,5.62
2019-02-08T07:29:15.625Z,5.62
2019-02-08T07:30:15.607Z,5.62
2019-02-08T07:31:15.583Z,5.62
2019-02-08T07:32:15.585Z,5.62
2019-02-08T07:33:15.566Z,5.62
2019-02-08T07:34:15.554Z,5.62
2019-02-08T07:35:15.542Z,5.62
2019-02-08T07:36:15.572Z,5.62
2019-02-08T07:37:15.540Z,5.62
2019-02-08T07:38:15.506Z,5.62
2019-02-08T07:39:15.535Z,5.62
2019-02-08T07:40:15.489Z,11.25
2019-02-08T07:41:15.590Z,11.25
2019-02-08T07:42:15.468Z,11.25
2019-02-08T07:43:15.501Z,11.25
2019-02-08T07:44:15.464Z,11.25
2019-02-08T07:45:15.433Z,11.25
2019-02-08T07:46:15.426Z,11.25
2019-02-08T07:47:15.409Z,11.25
2019-02-08T07:48:15.399Z,11.25
2019-02-08T07:49:15.392Z,11.25
2019-02-08T07:50:16.401Z,11.25
2019-02-08T07:51:15.391Z,11.25
2019-02-08T07:52:17.805Z,11.25
2019-02-08T07:53:15.346Z,16.87
2019-02-08T07:54:15.399Z,16.87
2019-02-08T07:55:15.446Z,16.87
2019-02-08T07:56:16.984Z,16.87
2019-02-08T07:58:15.380Z,16.87
2019-02-08T07:59:15.484Z,16.87
2019-02-08T08:00:16.143Z,16.87
2019-02-08T08:01:15.320Z,16.87
2019-02-08T08:18:12.690Z,11.25
2019-02-08T08:19:12.850Z,11.25
2019-02-08T08:20:12.692Z,11.25
2019-02-08T08:21:12.671Z,11.25
2019-02-08T08:22:12.670Z,11.25
2019-02-08T08:23:12.719Z,16.87
2019-02-08T08:24:12.613Z,16.87
2019-02-08T08:25:12.642Z,16.87
2019-02-08T08:26:12.603Z,16.87
2019-02-08T08:27:12.565Z,16.87
2019-02-08T08:28:12.687Z,16.87
2019-02-08T08:29:12.556Z,16.87
2019-02-08T08:30:12.555Z,16.87
2019-02-08T08:31:12.753Z,16.87
2019-02-08T08:32:12.523Z,22.50
2019-02-08T08:33:12.585Z,22.50
2019-02-08T08:34:12.489Z,22.50
2019-02-08T08:35:12.551Z,22.50
2019-02-08T08:36:13.322Z,22.50
2019-02-08T08:37:12.470Z,16.87
2019-02-08T08:38:12.438Z,16.87
2019-02-08T08:39:12.437Z,16.87
2019-02-08T08:40:12.418Z,16.87
2019-02-08T08:41:12.436Z,11.25
2019-02-08T08:42:12.408Z,11.25
2019-02-08T08:43:12.404Z,11.25
2019-02-08T08:44:12.375Z,11.25
2019-02-08T08:45:12.355Z,11.25
2019-02-08T08:46:12.359Z,16.87
2019-02-08T08:47:12.343Z,16.87
2019-02-08T08:48:12.333Z,16.87
2019-02-08T08:49:12.318Z,16.87
2019-02-08T08:50:12.312Z,16.87
2019-02-08T08:51:12.306Z,16.87
2019-02-08T08:52:12.291Z,16.87
2019-02-08T08:53:12.272Z,16.87
2019-02-08T08:54:12.284Z,16.87
2019-02-08T08:55:12.246Z,16.87
2019-02-08T08:56:12.247Z,16.87
2019-02-08T08:57:12.229Z,16.87
2019-02-08T08:58:12.217Z,16.87
2019-02-08T08:59:12.213Z,16.87
2019-02-08T09:00:12.198Z,16.87
2019-02-08T09:01:12.194Z,16.87
2019-02-08T09:02:12.395Z,16.87
2019-02-08T09:03:12.194Z,16.87
2019-02-08T09:04:12.152Z,16.87
2019-02-08T09:05:12.157Z,22.50
2019-02-08T09:06:12.129Z,22.50
2019-02-08T09:07:16.417Z,22.50
2019-02-08T09:08:12.130Z,22.50
2019-02-08T09:09:12.119Z,22.50
2019-02-08T09:10:13.205Z,22.50
2019-02-08T09:11:12.077Z,22.50
2019-02-08T09:12:12.150Z,22.50
2019-02-08T09:13:14.902Z,22.50
2019-02-08T09:14:12.052Z,16.87
2019-02-08T09:15:12.253Z,16.87
2019-02-08T09:16:12.033Z,22.50
2019-02-08T09:17:12.048Z,22.50
2019-02-08T09:18:12.012Z,22.50
2019-02-08T09:19:11.994Z,22.50
2019-02-08T09:20:11.997Z,22.50
2019-02-08T09:21:11.974Z,22.50
2019-02-08T09:22:11.980Z,28.12
2019-02-08T09:23:11.957Z,28.12
2019-02-08T09:24:12.942Z,28.12
2019-02-08T09:25:11.946Z,28.12
2019-02-08T09:26:11.929Z,22.50
2019-02-08T09:27:11.946Z,22.50
2019-02-08T09:28:11.901Z,22.50
2019-02-08T09:29:11.919Z,22.50
2019-02-08T09:30:11.911Z,28.12
2019-02-08T09:31:12.811Z,22.50
2019-02-08T09:32:12.101Z,22.50
2019-02-08T09:33:11.900Z,28.12
2019-02-08T09:34:11.846Z,22.50
2019-02-08T09:35:11.829Z,28.12
2019-02-08T09:36:11.871Z,28.12
2019-02-08T09:37:11.806Z,28.12
2019-02-08T09:38:11.786Z,28.12
2019-02-08T09:39:11.782Z,28.12
2019-02-08T09:40:11.780Z,22.50
2019-02-08T09:41:11.770Z,28.12
2019-02-08T09:42:11.786Z,33.75
2019-02-08T09:43:11.739Z,33.75
2019-02-08T09:44:11.720Z,33.75
2019-02-08T09:45:11.716Z,33.75
2019-02-08T09:46:11.786Z,33.75
2019-02-08T09:47:11.696Z,39.37
2019-02-08T09:48:11.682Z,39.37
2019-02-08T09:49:11.746Z,39.37
2019-02-08T09:50:11.676Z,39.37
2019-02-08T09:51:11.666Z,45.00
2019-02-08T09:52:11.647Z,45.00
2019-02-08T09:53:11.618Z,45.00
2019-02-08T09:54:11.620Z,39.37
2019-02-08T09:55:11.604Z,45.00
2019-02-08T09:56:11.593Z,45.00
2019-02-08T09:57:11.625Z,45.00
2019-02-08T09:58:11.571Z,33.75
2019-02-08T09:59:11.584Z,39.37
2019-02-08T10:00:11.554Z,39.37
2019-02-08T10:01:11.537Z,39.37
2019-02-08T10:02:11.537Z,39.37
2019-02-08T10:03:11.528Z,39.37
2019-02-08T10:04:11.509Z,45.00
2019-02-08T10:05:11.521Z,45.00
2019-02-08T10:06:11.491Z,39.37
2019-02-08T10:07:12.481Z,39.37
2019-02-08T10:08:11.466Z,45.00
2019-02-08T10:09:11.466Z,39.37
2019-02-08T10:10:11.451Z,39.37
2019-02-08T10:11:11.438Z,39.37
2019-02-08T10:12:11.418Z,39.37
2019-02-08T10:13:11.415Z,45.00
2019-02-08T10:14:11.401Z,45.00
2019-02-08T10:15:11.441Z,39.37
2019-02-08T10:16:11.378Z,45.00
2019-02-08T10:17:11.387Z,45.00
2019-02-08T10:18:11.386Z,50.62
2019-02-08T10:19:11.355Z,56.25
2019-02-08T10:20:11.364Z,56.25
2019-02-08T10:21:11.346Z,56.25
2019-02-08T10:22:11.327Z,56.25
2019-02-08T10:23:11.304Z,50.62
2019-02-08T10:24:11.305Z,56.25
2019-02-08T10:25:11.391Z,50.62
2019-02-08T10:26:11.293Z,50.62
2019-02-08T10:27:11.285Z,39.37
2019-02-08T10:28:11.261Z,39.37
2019-02-08T10:29:11.244Z,50.62
2019-02-08T10:30:11.235Z,56.25
2019-02-08T10:31:11.210Z,56.25
2019-02-08T10:32:11.226Z,61.87
2019-02-08T10:33:11.186Z,56.25
2019-02-08T10:34:11.184Z,56.25
2019-02-08T10:35:11.171Z,61.87
2019-02-08T10:36:11.164Z,67.50
2019-02-08T10:37:11.166Z,67.50
2019-02-08T10:38:11.150Z,67.50
2019-02-08T10:39:11.201Z,67.50
2019-02-08T10:40:11.119Z,67.50
2019-02-08T10:41:11.110Z,61.87
2019-02-08T10:42:11.166Z,61.87
2019-02-08T10:43:11.116Z,61.87
2019-02-08T10:44:11.077Z,61.87
2019-02-08T10:45:11.065Z,61.87
2019-02-08T10:46:11.135Z,67.50
2019-02-08T10:47:11.051Z,67.50
2019-02-08T10:48:11.027Z,67.50
2019-02-08T10:49:11.033Z,67.50
2019-02-08T10:50:11.048Z,56.25
2019-02-08T10:51:11.019Z,50.62
2019-02-08T10:52:10.983Z,56.25
2019-02-08T10:53:11.980Z,45.00
2019-02-08T10:54:11.074Z,56.25
2019-02-08T10:55:11.084Z,61.87
2019-02-08T10:56:14.974Z,50.62
2019-02-08T10:57:10.949Z,50.62
2019-02-08T10:58:10.930Z,61.87
2019-02-08T10:59:10.914Z,61.87
2019-02-08T11:00:10.908Z,56.25
2019-02-08T11:01:10.902Z,56.25
2019-02-08T11:02:11.029Z,61.87
2019-02-08T11:03:10.949Z,67.50
2019-02-08T11:04:10.854Z,61.87
2019-02-08T11:05:10.932Z,61.87
2019-02-08T11:06:10.889Z,67.50
2019-02-08T11:07:10.924Z,67.50
2019-02-08T11:08:10.811Z,67.50
2019-02-08T11:09:11.892Z,61.87
2019-02-08T11:10:10.795Z,61.87
2019-02-08T11:11:10.792Z,61.87
2019-02-08T11:12:10.760Z,61.87
2019-02-08T11:13:10.749Z,67.50
2019-02-08T11:14:10.746Z,67.50
2019-02-08T11:15:10.757Z,67.50
2019-02-08T11:16:10.926Z,67.50
2019-02-08T11:17:11.429Z,61.87
2019-02-08T11:18:10.708Z,61.87
2019-02-08T11:19:10.742Z,61.87
2019-02-08T11:20:10.873Z,61.87
2019-02-08T11:21:10.791Z,61.87
2019-02-08T11:22:10.755Z,56.25
2019-02-08T11:23:10.642Z,56.25
2019-02-08T11:24:10.634Z,50.62
2019-02-08T11:25:10.635Z,50.62
2019-02-08T11:26:10.620Z,56.25
2019-02-08T11:27:10.610Z,61.87
2019-02-08T11:28:10.587Z,56.25
2019-02-08T11:29:10.574Z,45.00
2019-02-08T11:30:10.566Z,50.62
2019-02-08T11:31:10.549Z,50.62
2019-02-08T11:32:10.554Z,45.00
2019-02-08T11:33:10.541Z,50.62
2019-02-08T11:34:10.527Z,56.25
2019-02-08T11:35:10.553Z,61.87
2019-02-08T11:36:10.498Z,61.87
2019-02-08T11:37:10.507Z,50.62
2019-02-08T11:38:10.550Z,50.62
2019-02-08T11:39:10.467Z,50.62
2019-02-08T11:40:10.491Z,45.00
2019-02-08T11:41:10.450Z,39.37
2019-02-08T11:42:10.435Z,33.75
2019-02-08T11:43:10.423Z,39.37
2019-02-08T11:44:10.417Z,45.00
2019-02-08T11:45:10.412Z,45.00
2019-02-08T11:46:10.395Z,39.37
2019-02-08T11:47:10.417Z,39.37
2019-02-08T11:48:10.373Z,33.75
2019-02-08T11:49:10.355Z,28.12
2019-02-08T11:50:10.341Z,33.75
2019-02-08T11:51:10.342Z,28.12
2019-02-08T11:52:10.383Z,28.12
2019-02-08T11:53:10.347Z,28.12
2019-02-08T11:54:10.355Z,28.12
2019-02-08T11:55:10.346Z,33.75
2019-02-08T11:56:10.309Z,28.12
2019-02-08T11:57:10.266Z,33.75
2019-02-08T11:58:10.262Z,28.12
2019-02-08T11:59:10.299Z,28.12
2019-02-08T12:00:10.234Z,28.12
2019-02-08T12:01:10.344Z,33.75
2019-02-08T12:02:10.210Z,33.75
2019-02-08T12:03:10.211Z,33.75
2019-02-08T12:04:10.235Z,28.12
2019-02-08T12:05:10.247Z,28.12
2019-02-08T12:06:10.166Z,28.12
2019-02-08T12:07:10.163Z,22.50
2019-02-08T12:08:10.142Z,22.50
2019-02-08T12:09:10.181Z,22.50
2019-02-08T12:10:10.145Z,22.50
2019-02-08T12:11:10.124Z,22.50
2019-02-08T12:12:10.095Z,22.50
2019-02-08T12:13:10.093Z,22.50
2019-02-08T12:14:10.074Z,22.50
2019-02-08T12:15:10.073Z,22.50
2019-02-08T12:16:10.086Z,16.87
2019-02-08T12:17:10.076Z,16.87
2019-02-08T12:18:10.098Z,16.87
2019-02-08T12:19:10.026Z,16.87
2019-02-08T12:20:10.057Z,16.87
2019-02-08T12:21:10.071Z,11.25
2019-02-08T12:22:10.001Z,16.87
2019-02-08T12:23:09.975Z,16.87
2019-02-08T12:24:09.999Z,16.87
2019-02-08T12:25:09.967Z,16.87
2019-02-08T12:26:10.009Z,16.87
2019-02-08T12:27:09.935Z,16.87
2019-02-08T12:28:09.922Z,16.87
2019-02-08T12:29:09.918Z,16.87
2019-02-08T12:30:09.985Z,16.87
2019-02-08T12:31:10.102Z,16.87
2019-02-08T12:32:09.901Z,16.87
2019-02-08T12:33:09.889Z,16.87
2019-02-08T12:34:09.865Z,16.87
2019-02-08T12:35:09.891Z,22.50
2019-02-08T12:36:09.832Z,22.50
2019-02-08T12:37:09.871Z,22.50
2019-02-08T12:38:09.816Z,22.50
2019-02-08T12:39:09.824Z,28.12
2019-02-08T12:40:09.835Z,28.12
2019-02-08T12:41:10.169Z,28.12
2019-02-08T12:42:09.771Z,33.75
2019-02-08T12:43:09.758Z,39.37
2019-02-08T12:44:10.528Z,33.75
2019-02-08T12:45:09.742Z,28.12
2019-02-08T12:46:09.739Z,22.50
2019-02-08T12:47:09.720Z,22.50
2019-02-08T12:48:09.745Z,22.50
2019-02-08T12:49:09.713Z,22.50
2019-02-08T12:50:09.716Z,22.50
2019-02-08T12:51:09.680Z,22.50
2019-02-08T12:52:09.659Z,22.50
2019-02-08T12:53:09.704Z,16.87
2019-02-08T12:54:09.632Z,16.87
2019-02-08T12:55:09.691Z,16.87
2019-02-08T12:56:09.629Z,16.87
2019-02-08T12:57:09.623Z,16.87
2019-02-08T12:58:09.601Z,16.87
2019-02-08T12:59:09.584Z,16.87
2019-02-08T13:00:09.584Z,16.87
2019-02-08T13:01:09.581Z,16.87
2019-02-08T13:02:09.676Z,16.87
2019-02-08T13:03:10.555Z,16.87
2019-02-08T13:04:09.528Z,11.25
2019-02-08T13:05:09.528Z,16.87
2019-02-08T13:06:09.572Z,16.87
2019-02-08T13:07:10.404Z,16.87
2019-02-08T13:08:09.483Z,16.87
2019-02-08T13:09:09.475Z,16.87
2019-02-08T13:10:09.461Z,16.87
2019-02-08T13:11:09.482Z,16.87
2019-02-08T13:12:09.453Z,16.87
2019-02-08T13:13:09.450Z,16.87
2019-02-08T13:14:09.426Z,16.87
2019-02-08T13:15:09.443Z,16.87
2019-02-08T13:16:09.483Z,11.25
2019-02-08T13:17:09.409Z,11.25
2019-02-08T13:18:09.391Z,16.87
2019-02-08T13:19:09.378Z,11.25
2019-02-08T13:20:09.454Z,11.25
2019-02-08T13:21:09.361Z,11.25
2019-02-08T13:22:09.337Z,11.25
2019-02-08T13:23:09.364Z,11.25
2019-02-08T13:24:09.365Z,11.25
2019-02-08T13:25:09.320Z,11.25
2019-02-08T13:26:09.303Z,11.25
2019-02-08T13:27:09.528Z,11.25
2019-02-08T13:28:09.260Z,11.25
2019-02-08T13:29:09.269Z,11.25
2019-02-08T13:30:09.255Z,11.25
2019-02-08T13:31:09.234Z,11.25
2019-02-08T13:32:09.243Z,11.25
2019-02-08T13:33:09.238Z,16.87
2019-02-08T13:34:09.208Z,16.87
2019-02-08T13:35:09.239Z,16.87
2019-02-08T13:36:09.242Z,16.87
2019-02-08T13:37:09.174Z,11.25
2019-02-08T13:38:09.201Z,11.25
2019-02-08T13:39:09.210Z,11.25
2019-02-08T13:40:09.149Z,11.25
2019-02-08T13:41:09.167Z,11.25
2019-02-08T13:42:09.140Z,11.25
2019-02-08T13:43:09.130Z,11.25
2019-02-08T13:44:09.158Z,11.25
2019-02-08T13:45:09.113Z,11.25
2019-02-08T13:46:09.102Z,11.25
2019-02-08T14:01:40.649Z,16.87
2019-02-08T14:02:40.661Z,16.87
2019-02-08T14:03:40.633Z,16.87
2019-02-08T14:04:40.614Z,16.87
2019-02-08T14:05:40.604Z,16.87
2019-02-08T14:06:40.600Z,16.87
2019-02-08T14:07:40.705Z,16.87
2019-02-08T14:08:40.577Z,16.87
2019-02-08T14:09:40.573Z,16.87
2019-02-08T14:10:40.558Z,16.87
2019-02-08T14:11:40.742Z,16.87
2019-02-08T14:12:40.540Z,11.25
2019-02-08T14:13:40.996Z,11.25
2019-02-08T14:14:40.505Z,11.25
2019-02-08T14:15:40.497Z,11.25
2019-02-08T14:16:40.480Z,16.87
2019-02-08T14:17:41.253Z,16.87
2019-02-08T14:18:40.456Z,16.87
2019-02-08T14:19:40.455Z,22.50
2019-02-08T14:20:40.436Z,16.87
2019-02-08T14:21:40.430Z,16.87
2019-02-08T14:22:40.411Z,16.87
2019-02-08T14:23:40.399Z,16.87
2019-02-08T14:24:40.385Z,22.50
2019-02-08T14:25:40.431Z,22.50
2019-02-08T14:26:40.365Z,22.50
2019-02-08T14:27:40.385Z,22.50
2019-02-08T14:28:40.343Z,22.50
2019-02-08T14:29:40.342Z,22.50
2019-02-08T14:30:40.330Z,16.87
2019-02-08T14:31:40.378Z,22.50
2019-02-08T14:32:40.394Z,28.12
2019-02-08T14:33:40.336Z,33.75
2019-02-08T14:34:43.758Z,33.75
2019-02-08T14:35:40.270Z,33.75
2019-02-08T14:36:40.256Z,28.12
2019-02-08T14:37:40.255Z,28.12
2019-02-08T14:38:40.382Z,28.12
2019-02-08T14:39:40.287Z,33.75
2019-02-08T14:40:40.217Z,33.75
2019-02-08T14:41:40.247Z,33.75
2019-02-08T14:42:40.208Z,33.75
2019-02-08T14:43:40.393Z,33.75
2019-02-08T14:44:40.811Z,28.12
2019-02-08T14:45:40.181Z,28.12
2019-02-08T14:46:40.176Z,28.12
2019-02-08T14:47:41.985Z,28.12
2019-02-08T14:48:40.122Z,22.50
2019-02-08T14:49:40.122Z,22.50
2019-02-08T14:50:40.104Z,22.50
2019-02-08T14:51:40.091Z,22.50
2019-02-08T14:52:40.082Z,22.50
2019-02-08T14:53:40.190Z,22.50
2019-02-08T14:54:40.181Z,22.50
2019-02-08T14:55:40.289Z,22.50
2019-02-08T14:56:40.044Z,22.50
2019-02-08T14:57:40.022Z,22.50
2019-02-08T14:58:40.021Z,22.50
2019-02-08T14:59:40.004Z,22.50
2019-02-08T15:00:40.001Z,22.50
2019-02-08T15:01:39.981Z,22.50
2019-02-08T15:02:40.085Z,22.50
2019-02-08T15:03:39.970Z,22.50
2019-02-08T15:04:39.950Z,22.50
2019-02-08T15:05:39.955Z,22.50
2019-02-08T15:06:39.929Z,22.50
2019-02-08T15:07:40.025Z,22.50
2019-02-08T15:08:39.936Z,22.50
2019-02-08T15:09:39.897Z,22.50
2019-02-08T15:10:39.879Z,22.50
2019-02-08T15:11:39.876Z,22.50
2019-02-08T15:12:39.880Z,22.50
2019-02-08T15:13:39.849Z,22.50
2019-02-08T15:14:39.842Z,16.87
2019-02-08T15:15:39.834Z,16.87
2019-02-08T15:16:39.894Z,16.87
2019-02-08T15:17:39.887Z,16.87
2019-02-08T15:18:39.869Z,16.87
2019-02-08T15:19:39.931Z,16.87
2019-02-08T15:20:39.951Z,16.87
2019-02-08T15:21:39.764Z,11.25
2019-02-08T15:22:39.766Z,11.25
2019-02-08T15:23:39.743Z,5.62
2019-02-08T15:24:39.727Z,5.62
2019-02-08T15:25:39.757Z,5.62
2019-02-08T15:27:39.702Z,5.62
2019-02-08T15:28:39.692Z,5.62
2019-02-08T15:29:39.669Z,5.62
2019-02-08T15:31:39.700Z,5.62
2019-02-08T15:32:39.636Z,5.62
2019-02-08T15:33:39.635Z,5.62
2019-02-08T15:34:39.702Z,5.62
2019-02-08T15:35:39.613Z,5.62
2019-02-08T15:36:39.600Z,5.62
2019-02-08T15:37:39.601Z,5.62
2019-02-08T15:38:39.582Z,11.25
2019-02-08T15:39:39.615Z,11.25
2019-02-08T15:40:39.568Z,11.25
2019-02-08T15:41:39.550Z,11.25
2019-02-08T15:42:39.533Z,11.25
2019-02-08T15:43:39.524Z,11.25
2019-02-08T15:44:39.511Z,11.25
2019-02-08T15:45:39.500Z,11.25
2019-02-08T15:46:39.510Z,5.62
2019-02-08T15:47:39.482Z,5.62
2019-02-08T15:48:39.480Z,5.62
2019-02-08T15:50:39.452Z,5.62
2019-02-08T15:51:39.449Z,5.62
2019-02-08T15:52:39.434Z,5.62
2019-02-08T15:53:39.412Z,5.62
2019-02-08T15:54:39.402Z,5.62
2019-02-08T15:55:39.398Z,5.62
2019-02-08T15:56:39.385Z,5.62
2019-02-08T15:59:39.349Z,5.62
2019-02-08T16:00:39.340Z,5.62
2019-02-08T16:01:39.338Z,5.62
2019-02-08T16:02:39.313Z,5.62
